sensor_id;sensor_type;location;lat;lon;timestamp;P1;durP1;ratioP1;P2;durP2;ratioP2
73454;SDS011;61690;51.824;6.306;2023-07-13T00:00:40;6.38;;;1.95;;
73454;SDS011;61690;51.824;6.306;2023-07-13T00:03:06;4.97;;;1.80;;
73454;SDS011;61690;51.824;6.306;2023-07-13T00:05:31;4.95;;;1.77;;
73454;SDS011;61690;51.824;6.306;2023-07-13T00:07:58;4.73;;;2.00;;
73454;SDS011;61690;51.824;6.306;2023-07-13T00:10:24;5.80;;;2.10;;
73454;SDS011;61690;51.824;6.306;2023-07-13T00:12:49;4.27;;;1.80;;
73454;SDS011;61690;51.824;6.306;2023-07-13T00:15:20;5.78;;;2.10;;
73454;SDS011;61690;51.824;6.306;2023-07-13T00:17:49;5.00;;;2.20;;
73454;SDS011;61690;51.824;6.306;2023-07-13T00:20:20;6.00;;;2.30;;
73454;SDS011;61690;51.824;6.306;2023-07-13T00:22:47;6.32;;;1.92;;
73454;SDS011;61690;51.824;6.306;2023-07-13T00:25:13;4.85;;;1.90;;
73454;SDS011;61690;51.824;6.306;2023-07-13T00:27:39;4.97;;;1.97;;
73454;SDS011;61690;51.824;6.306;2023-07-13T00:30:04;4.37;;;1.97;;
73454;SDS011;61690;51.824;6.306;2023-07-13T00:32:32;5.28;;;1.90;;
73454;SDS011;61690;51.824;6.306;2023-07-13T00:34:58;5.23;;;2.20;;
73454;SDS011;61690;51.824;6.306;2023-07-13T00:37:25;4.97;;;2.17;;
73454;SDS011;61690;51.824;6.306;2023-07-13T00:39:50;5.07;;;1.93;;
73454;SDS011;61690;51.824;6.306;2023-07-13T00:42:16;5.60;;;2.17;;
73454;SDS011;61690;51.824;6.306;2023-07-13T00:45:00;5.17;;;2.07;;
73454;SDS011;61690;51.824;6.306;2023-07-13T00:47:38;5.07;;;1.92;;
73454;SDS011;61690;51.824;6.306;2023-07-13T00:50:04;5.90;;;2.10;;
73454;SDS011;61690;51.824;6.306;2023-07-13T00:52:33;4.80;;;1.90;;
73454;SDS011;61690;51.824;6.306;2023-07-13T00:55:01;4.70;;;2.00;;
73454;SDS011;61690;51.824;6.306;2023-07-13T00:57:29;5.20;;;2.33;;
73454;SDS011;61690;51.824;6.306;2023-07-13T00:59:57;5.38;;;1.88;;
73454;SDS011;61690;51.824;6.306;2023-07-13T01:02:25;4.95;;;1.70;;
73454;SDS011;61690;51.824;6.306;2023-07-13T01:04:51;4.75;;;1.90;;
73454;SDS011;61690;51.824;6.306;2023-07-13T01:07:17;4.47;;;1.80;;
73454;SDS011;61690;51.824;6.306;2023-07-13T01:09:44;4.82;;;1.88;;
73454;SDS011;61690;51.824;6.306;2023-07-13T01:12:11;4.80;;;1.98;;
73454;SDS011;61690;51.824;6.306;2023-07-13T01:14:38;4.78;;;2.05;;
73454;SDS011;61690;51.824;6.306;2023-07-13T01:17:05;4.60;;;1.90;;
73454;SDS011;61690;51.824;6.306;2023-07-13T01:19:37;5.00;;;1.90;;
73454;SDS011;61690;51.824;6.306;2023-07-13T01:22:05;4.60;;;1.87;;
73454;SDS011;61690;51.824;6.306;2023-07-13T01:24:34;4.90;;;1.83;;
73454;SDS011;61690;51.824;6.306;2023-07-13T01:27:00;5.25;;;2.17;;
73454;SDS011;61690;51.824;6.306;2023-07-13T01:29:25;4.80;;;2.07;;
73454;SDS011;61690;51.824;6.306;2023-07-13T01:31:53;5.05;;;2.20;;
73454;SDS011;61690;51.824;6.306;2023-07-13T01:34:18;5.13;;;2.08;;
73454;SDS011;61690;51.824;6.306;2023-07-13T01:36:45;4.80;;;2.05;;
73454;SDS011;61690;51.824;6.306;2023-07-13T01:39:11;4.30;;;1.90;;
73454;SDS011;61690;51.824;6.306;2023-07-13T01:41:37;5.10;;;2.00;;
73454;SDS011;61690;51.824;6.306;2023-07-13T01:44:04;4.68;;;2.00;;
73454;SDS011;61690;51.824;6.306;2023-07-13T01:46:29;5.05;;;2.20;;
73454;SDS011;61690;51.824;6.306;2023-07-13T01:48:54;5.10;;;2.20;;
73454;SDS011;61690;51.824;6.306;2023-07-13T01:51:20;4.90;;;1.93;;
73454;SDS011;61690;51.824;6.306;2023-07-13T01:53:46;4.47;;;2.00;;
73454;SDS011;61690;51.824;6.306;2023-07-13T01:56:11;4.47;;;1.77;;
73454;SDS011;61690;51.824;6.306;2023-07-13T01:58:36;5.30;;;1.83;;
73454;SDS011;61690;51.824;6.306;2023-07-13T02:01:01;4.77;;;2.07;;
73454;SDS011;61690;51.824;6.306;2023-07-13T02:03:27;4.90;;;2.10;;
73454;SDS011;61690;51.824;6.306;2023-07-13T02:05:52;5.23;;;2.30;;
73454;SDS011;61690;51.824;6.306;2023-07-13T02:08:18;5.07;;;2.00;;
73454;SDS011;61690;51.824;6.306;2023-07-13T02:10:43;5.20;;;1.88;;
73454;SDS011;61690;51.824;6.306;2023-07-13T02:13:08;5.40;;;2.10;;
73454;SDS011;61690;51.824;6.306;2023-07-13T02:15:33;4.53;;;1.90;;
73454;SDS011;61690;51.824;6.306;2023-07-13T02:17:59;4.77;;;2.00;;
73454;SDS011;61690;51.824;6.306;2023-07-13T02:20:24;5.13;;;2.00;;
73454;SDS011;61690;51.824;6.306;2023-07-13T02:22:51;4.70;;;2.10;;
73454;SDS011;61690;51.824;6.306;2023-07-13T02:25:16;5.23;;;2.00;;
73454;SDS011;61690;51.824;6.306;2023-07-13T02:27:42;4.60;;;1.90;;
73454;SDS011;61690;51.824;6.306;2023-07-13T02:30:07;5.30;;;2.20;;
73454;SDS011;61690;51.824;6.306;2023-07-13T02:32:33;4.28;;;1.95;;
73454;SDS011;61690;51.824;6.306;2023-07-13T02:34:59;5.50;;;1.80;;
73454;SDS011;61690;51.824;6.306;2023-07-13T02:37:24;4.90;;;2.10;;
73454;SDS011;61690;51.824;6.306;2023-07-13T02:39:49;4.53;;;2.10;;
73454;SDS011;61690;51.824;6.306;2023-07-13T02:42:15;4.67;;;2.20;;
73454;SDS011;61690;51.824;6.306;2023-07-13T02:44:40;5.20;;;2.00;;
73454;SDS011;61690;51.824;6.306;2023-07-13T02:47:05;4.83;;;2.10;;
73454;SDS011;61690;51.824;6.306;2023-07-13T02:49:31;5.13;;;1.90;;
73454;SDS011;61690;51.824;6.306;2023-07-13T02:51:56;4.57;;;1.90;;
73454;SDS011;61690;51.824;6.306;2023-07-13T02:54:21;4.80;;;2.00;;
73454;SDS011;61690;51.824;6.306;2023-07-13T02:56:47;5.30;;;2.17;;
73454;SDS011;61690;51.824;6.306;2023-07-13T02:59:12;5.07;;;2.00;;
73454;SDS011;61690;51.824;6.306;2023-07-13T03:01:37;5.27;;;1.80;;
73454;SDS011;61690;51.824;6.306;2023-07-13T03:04:03;4.80;;;1.90;;
73454;SDS011;61690;51.824;6.306;2023-07-13T03:06:30;4.38;;;2.05;;
73454;SDS011;61690;51.824;6.306;2023-07-13T03:08:56;4.97;;;1.93;;
73454;SDS011;61690;51.824;6.306;2023-07-13T03:11:22;4.28;;;1.77;;
73454;SDS011;61690;51.824;6.306;2023-07-13T03:13:48;4.67;;;1.77;;
73454;SDS011;61690;51.824;6.306;2023-07-13T03:16:15;4.60;;;1.90;;
73454;SDS011;61690;51.824;6.306;2023-07-13T03:18:41;4.70;;;2.00;;
73454;SDS011;61690;51.824;6.306;2023-07-13T03:21:07;5.30;;;1.85;;
73454;SDS011;61690;51.824;6.306;2023-07-13T03:23:34;4.90;;;2.20;;
73454;SDS011;61690;51.824;6.306;2023-07-13T03:26:09;4.70;;;1.80;;
73454;SDS011;61690;51.824;6.306;2023-07-13T03:28:40;4.95;;;2.15;;
73454;SDS011;61690;51.824;6.306;2023-07-13T03:31:12;4.93;;;1.90;;
73454;SDS011;61690;51.824;6.306;2023-07-13T03:33:39;4.07;;;1.70;;
73454;SDS011;61690;51.824;6.306;2023-07-13T03:36:05;4.13;;;1.90;;
73454;SDS011;61690;51.824;6.306;2023-07-13T03:38:34;4.07;;;1.85;;
73454;SDS011;61690;51.824;6.306;2023-07-13T03:41:00;5.03;;;2.10;;
73454;SDS011;61690;51.824;6.306;2023-07-13T03:43:26;4.60;;;1.93;;
73454;SDS011;61690;51.824;6.306;2023-07-13T03:45:51;4.78;;;2.13;;
73454;SDS011;61690;51.824;6.306;2023-07-13T03:48:17;4.87;;;1.80;;
73454;SDS011;61690;51.824;6.306;2023-07-13T03:50:42;4.20;;;1.80;;
73454;SDS011;61690;51.824;6.306;2023-07-13T03:53:07;4.30;;;2.00;;
73454;SDS011;61690;51.824;6.306;2023-07-13T03:55:33;4.60;;;2.07;;
73454;SDS011;61690;51.824;6.306;2023-07-13T03:58:23;3.88;;;1.63;;
73454;SDS011;61690;51.824;6.306;2023-07-13T04:00:52;5.32;;;2.17;;
73454;SDS011;61690;51.824;6.306;2023-07-13T04:03:18;4.17;;;2.10;;
73454;SDS011;61690;51.824;6.306;2023-07-13T04:05:44;4.23;;;2.13;;
73454;SDS011;61690;51.824;6.306;2023-07-13T04:08:09;4.45;;;1.92;;
73454;SDS011;61690;51.824;6.306;2023-07-13T04:10:34;4.73;;;2.10;;
73454;SDS011;61690;51.824;6.306;2023-07-13T04:13:00;4.50;;;1.80;;
73454;SDS011;61690;51.824;6.306;2023-07-13T04:15:28;4.40;;;2.20;;
73454;SDS011;61690;51.824;6.306;2023-07-13T04:17:55;4.10;;;1.83;;
73454;SDS011;61690;51.824;6.306;2023-07-13T04:20:20;4.67;;;2.00;;
73454;SDS011;61690;51.824;6.306;2023-07-13T04:22:47;4.20;;;2.00;;
73454;SDS011;61690;51.824;6.306;2023-07-13T04:25:13;4.00;;;1.90;;
73454;SDS011;61690;51.824;6.306;2023-07-13T04:27:38;4.27;;;1.90;;
73454;SDS011;61690;51.824;6.306;2023-07-13T04:30:04;4.32;;;1.77;;
73454;SDS011;61690;51.824;6.306;2023-07-13T04:32:31;4.30;;;2.00;;
73454;SDS011;61690;51.824;6.306;2023-07-13T04:34:57;4.38;;;1.90;;
73454;SDS011;61690;51.824;6.306;2023-07-13T04:37:26;4.65;;;2.00;;
73454;SDS011;61690;51.824;6.306;2023-07-13T04:39:51;4.80;;;1.77;;
73454;SDS011;61690;51.824;6.306;2023-07-13T04:42:17;6.87;;;2.03;;
73454;SDS011;61690;51.824;6.306;2023-07-13T04:44:47;5.35;;;2.00;;
73454;SDS011;61690;51.824;6.306;2023-07-13T04:47:15;4.68;;;1.80;;
73454;SDS011;61690;51.824;6.306;2023-07-13T04:49:41;5.83;;;2.00;;
73454;SDS011;61690;51.824;6.306;2023-07-13T04:52:08;5.63;;;2.00;;
73454;SDS011;61690;51.824;6.306;2023-07-13T04:54:34;5.87;;;1.80;;
73454;SDS011;61690;51.824;6.306;2023-07-13T04:56:59;5.93;;;1.90;;
73454;SDS011;61690;51.824;6.306;2023-07-13T04:59:25;7.67;;;2.10;;
73454;SDS011;61690;51.824;6.306;2023-07-13T05:01:52;6.77;;;2.20;;
73454;SDS011;61690;51.824;6.306;2023-07-13T05:04:18;5.30;;;2.10;;
73454;SDS011;61690;51.824;6.306;2023-07-13T05:06:44;7.68;;;2.33;;
73454;SDS011;61690;51.824;6.306;2023-07-13T05:09:09;7.27;;;2.10;;
73454;SDS011;61690;51.824;6.306;2023-07-13T05:11:34;8.47;;;2.67;;
73454;SDS011;61690;51.824;6.306;2023-07-13T05:14:00;8.13;;;2.40;;
73454;SDS011;61690;51.824;6.306;2023-07-13T05:16:26;9.18;;;2.50;;
73454;SDS011;61690;51.824;6.306;2023-07-13T05:18:53;8.25;;;2.70;;
73454;SDS011;61690;51.824;6.306;2023-07-13T05:21:19;8.33;;;2.60;;
73454;SDS011;61690;51.824;6.306;2023-07-13T05:23:45;7.20;;;2.42;;
73454;SDS011;61690;51.824;6.306;2023-07-13T05:26:11;8.75;;;2.40;;
73454;SDS011;61690;51.824;6.306;2023-07-13T05:28:37;7.70;;;2.77;;
73454;SDS011;61690;51.824;6.306;2023-07-13T05:31:03;10.20;;;2.90;;
73454;SDS011;61690;51.824;6.306;2023-07-13T05:33:29;9.75;;;3.58;;
73454;SDS011;61690;51.824;6.306;2023-07-13T05:35:55;8.73;;;3.10;;
73454;SDS011;61690;51.824;6.306;2023-07-13T05:38:20;10.70;;;3.27;;
73454;SDS011;61690;51.824;6.306;2023-07-13T05:40:46;11.23;;;3.57;;
73454;SDS011;61690;51.824;6.306;2023-07-13T05:43:12;12.77;;;4.18;;
73454;SDS011;61690;51.824;6.306;2023-07-13T05:45:40;11.85;;;4.25;;
73454;SDS011;61690;51.824;6.306;2023-07-13T05:48:05;11.10;;;4.20;;
73454;SDS011;61690;51.824;6.306;2023-07-13T05:50:31;13.38;;;4.10;;
73454;SDS011;61690;51.824;6.306;2023-07-13T05:52:56;12.03;;;4.57;;
73454;SDS011;61690;51.824;6.306;2023-07-13T05:55:22;15.57;;;4.93;;
73454;SDS011;61690;51.824;6.306;2023-07-13T05:57:47;11.73;;;4.33;;
73454;SDS011;61690;51.824;6.306;2023-07-13T06:00:12;11.57;;;4.50;;
73454;SDS011;61690;51.824;6.306;2023-07-13T06:02:38;15.98;;;5.10;;
73454;SDS011;61690;51.824;6.306;2023-07-13T06:05:04;13.73;;;4.80;;
73454;SDS011;61690;51.824;6.306;2023-07-13T06:07:30;14.52;;;5.10;;
73454;SDS011;61690;51.824;6.306;2023-07-13T06:09:55;13.87;;;5.27;;
73454;SDS011;61690;51.824;6.306;2023-07-13T06:12:24;15.13;;;4.82;;
73454;SDS011;61690;51.824;6.306;2023-07-13T06:14:49;13.05;;;4.63;;
73454;SDS011;61690;51.824;6.306;2023-07-13T06:17:15;14.03;;;4.80;;
73454;SDS011;61690;51.824;6.306;2023-07-13T06:19:40;15.03;;;5.03;;
73454;SDS011;61690;51.824;6.306;2023-07-13T06:22:05;14.97;;;4.90;;
73454;SDS011;61690;51.824;6.306;2023-07-13T06:24:30;13.20;;;4.70;;
73454;SDS011;61690;51.824;6.306;2023-07-13T06:26:56;14.07;;;4.60;;
73454;SDS011;61690;51.824;6.306;2023-07-13T06:29:22;13.52;;;5.40;;
73454;SDS011;61690;51.824;6.306;2023-07-13T06:31:48;11.47;;;4.60;;
73454;SDS011;61690;51.824;6.306;2023-07-13T06:34:14;14.32;;;5.03;;
73454;SDS011;61690;51.824;6.306;2023-07-13T06:36:39;13.87;;;5.03;;
73454;SDS011;61690;51.824;6.306;2023-07-13T06:39:06;12.63;;;4.80;;
73454;SDS011;61690;51.824;6.306;2023-07-13T06:41:32;13.75;;;4.50;;
73454;SDS011;61690;51.824;6.306;2023-07-13T06:43:58;13.53;;;5.13;;
73454;SDS011;61690;51.824;6.306;2023-07-13T06:46:23;14.98;;;6.10;;
73454;SDS011;61690;51.824;6.306;2023-07-13T06:48:49;15.67;;;6.23;;
73454;SDS011;61690;51.824;6.306;2023-07-13T06:51:14;18.93;;;5.87;;
73454;SDS011;61690;51.824;6.306;2023-07-13T06:53:40;13.48;;;5.25;;
73454;SDS011;61690;51.824;6.306;2023-07-13T06:56:05;16.73;;;5.33;;
73454;SDS011;61690;51.824;6.306;2023-07-13T06:58:31;16.57;;;6.00;;
73454;SDS011;61690;51.824;6.306;2023-07-13T07:00:59;17.45;;;7.70;;
73454;SDS011;61690;51.824;6.306;2023-07-13T07:03:25;14.93;;;6.03;;
73454;SDS011;61690;51.824;6.306;2023-07-13T07:05:52;15.93;;;7.20;;
73454;SDS011;61690;51.824;6.306;2023-07-13T07:08:18;16.02;;;7.03;;
73454;SDS011;61690;51.824;6.306;2023-07-13T07:10:43;18.00;;;7.70;;
73454;SDS011;61690;51.824;6.306;2023-07-13T07:13:10;19.58;;;8.32;;
73454;SDS011;61690;51.824;6.306;2023-07-13T07:15:37;18.40;;;7.73;;
73454;SDS011;61690;51.824;6.306;2023-07-13T07:18:02;16.05;;;6.70;;
73454;SDS011;61690;51.824;6.306;2023-07-13T07:20:28;18.75;;;7.05;;
73454;SDS011;61690;51.824;6.306;2023-07-13T07:22:55;15.88;;;6.97;;
73454;SDS011;61690;51.824;6.306;2023-07-13T07:25:21;15.80;;;6.63;;
73454;SDS011;61690;51.824;6.306;2023-07-13T07:27:46;16.87;;;7.13;;
73454;SDS011;61690;51.824;6.306;2023-07-13T07:30:15;18.85;;;7.40;;
73454;SDS011;61690;51.824;6.306;2023-07-13T07:32:41;17.25;;;7.50;;
73454;SDS011;61690;51.824;6.306;2023-07-13T07:35:06;17.87;;;7.60;;
73454;SDS011;61690;51.824;6.306;2023-07-13T07:37:33;19.70;;;7.55;;
73454;SDS011;61690;51.824;6.306;2023-07-13T07:39:58;13.47;;;6.00;;
73454;SDS011;61690;51.824;6.306;2023-07-13T07:42:24;14.63;;;6.40;;
73454;SDS011;61690;51.824;6.306;2023-07-13T07:44:51;21.45;;;8.05;;
73454;SDS011;61690;51.824;6.306;2023-07-13T07:47:18;16.75;;;7.30;;
73454;SDS011;61690;51.824;6.306;2023-07-13T07:49:43;17.20;;;6.37;;
73454;SDS011;61690;51.824;6.306;2023-07-13T07:52:08;16.83;;;7.40;;
73454;SDS011;61690;51.824;6.306;2023-07-13T07:54:34;17.45;;;7.15;;
73454;SDS011;61690;51.824;6.306;2023-07-13T07:56:59;16.93;;;7.53;;
73454;SDS011;61690;51.824;6.306;2023-07-13T07:59:25;17.87;;;6.13;;
73454;SDS011;61690;51.824;6.306;2023-07-13T08:01:53;15.30;;;6.00;;
73454;SDS011;61690;51.824;6.306;2023-07-13T08:04:18;14.20;;;6.40;;
73454;SDS011;61690;51.824;6.306;2023-07-13T08:06:44;18.23;;;6.60;;
73454;SDS011;61690;51.824;6.306;2023-07-13T08:09:09;16.20;;;6.37;;
73454;SDS011;61690;51.824;6.306;2023-07-13T08:11:34;19.30;;;6.57;;
73454;SDS011;61690;51.824;6.306;2023-07-13T08:13:59;15.70;;;5.97;;
73454;SDS011;61690;51.824;6.306;2023-07-13T08:16:25;17.83;;;6.97;;
73454;SDS011;61690;51.824;6.306;2023-07-13T08:18:51;14.82;;;6.45;;
73454;SDS011;61690;51.824;6.306;2023-07-13T08:21:16;14.77;;;6.17;;
73454;SDS011;61690;51.824;6.306;2023-07-13T08:23:42;15.52;;;6.18;;
73454;SDS011;61690;51.824;6.306;2023-07-13T08:26:07;15.93;;;5.90;;
73454;SDS011;61690;51.824;6.306;2023-07-13T08:28:33;15.80;;;5.83;;
73454;SDS011;61690;51.824;6.306;2023-07-13T08:31:03;15.15;;;6.97;;
73454;SDS011;61690;51.824;6.306;2023-07-13T08:33:32;15.00;;;5.90;;
73454;SDS011;61690;51.824;6.306;2023-07-13T08:35:59;11.32;;;5.07;;
73454;SDS011;61690;51.824;6.306;2023-07-13T08:38:24;16.93;;;6.40;;
73454;SDS011;61690;51.824;6.306;2023-07-13T08:40:53;15.83;;;6.20;;
73454;SDS011;61690;51.824;6.306;2023-07-13T08:43:26;15.05;;;6.35;;
73454;SDS011;61690;51.824;6.306;2023-07-13T08:46:14;12.97;;;6.23;;
73454;SDS011;61690;51.824;6.306;2023-07-13T08:49:16;13.05;;;5.97;;
73454;SDS011;61690;51.824;6.306;2023-07-13T08:51:49;18.45;;;6.93;;
73454;SDS011;61690;51.824;6.306;2023-07-13T08:54:36;13.18;;;6.20;;
73454;SDS011;61690;51.824;6.306;2023-07-13T08:57:30;16.98;;;6.75;;
73454;SDS011;61690;51.824;6.306;2023-07-13T08:59:58;16.13;;;6.60;;
73454;SDS011;61690;51.824;6.306;2023-07-13T09:05:08;15.27;;;6.10;;
73454;SDS011;61690;51.824;6.306;2023-07-13T09:15:49;15.10;;;6.38;;
73454;SDS011;61690;51.824;6.306;2023-07-13T09:18:32;14.83;;;6.20;;
73454;SDS011;61690;51.824;6.306;2023-07-13T09:21:10;16.55;;;6.38;;
73454;SDS011;61690;51.824;6.306;2023-07-13T09:23:39;14.93;;;6.20;;
73454;SDS011;61690;51.824;6.306;2023-07-13T09:26:08;14.05;;;6.18;;
73454;SDS011;61690;51.824;6.306;2023-07-13T09:28:37;14.38;;;6.20;;
73454;SDS011;61690;51.824;6.306;2023-07-13T09:33:55;15.15;;;6.07;;
73454;SDS011;61690;51.824;6.306;2023-07-13T09:36:25;13.27;;;5.78;;
73454;SDS011;61690;51.824;6.306;2023-07-13T09:38:58;12.13;;;5.80;;
73454;SDS011;61690;51.824;6.306;2023-07-13T09:41:33;14.32;;;5.40;;
73454;SDS011;61690;51.824;6.306;2023-07-13T09:44:08;12.82;;;5.03;;
73454;SDS011;61690;51.824;6.306;2023-07-13T09:46:39;14.93;;;5.90;;
73454;SDS011;61690;51.824;6.306;2023-07-13T09:49:10;14.30;;;5.72;;
73454;SDS011;61690;51.824;6.306;2023-07-13T09:51:37;15.43;;;5.20;;
73454;SDS011;61690;51.824;6.306;2023-07-13T09:54:04;11.63;;;5.40;;
73454;SDS011;61690;51.824;6.306;2023-07-13T09:56:29;13.67;;;5.30;;
73454;SDS011;61690;51.824;6.306;2023-07-13T09:58:57;12.05;;;5.20;;
73454;SDS011;61690;51.824;6.306;2023-07-13T10:01:31;12.35;;;4.53;;
73454;SDS011;61690;51.824;6.306;2023-07-13T10:04:12;11.63;;;4.90;;
73454;SDS011;61690;51.824;6.306;2023-07-13T10:06:39;14.83;;;4.77;;
73454;SDS011;61690;51.824;6.306;2023-07-13T10:09:08;9.68;;;4.63;;
73454;SDS011;61690;51.824;6.306;2023-07-13T10:11:35;14.35;;;4.82;;
73454;SDS011;61690;51.824;6.306;2023-07-13T10:16:38;13.02;;;5.00;;
73454;SDS011;61690;51.824;6.306;2023-07-13T10:19:06;13.83;;;4.90;;
73454;SDS011;61690;51.824;6.306;2023-07-13T10:21:50;12.20;;;5.10;;
73454;SDS011;61690;51.824;6.306;2023-07-13T10:24:21;11.13;;;5.10;;
73454;SDS011;61690;51.824;6.306;2023-07-13T10:27:29;11.43;;;4.90;;
73454;SDS011;61690;51.824;6.306;2023-07-13T10:29:47;11.57;;;4.97;;
73454;SDS011;61690;51.824;6.306;2023-07-13T10:32:19;12.03;;;5.07;;
73454;SDS011;61690;51.824;6.306;2023-07-13T10:34:48;11.45;;;5.63;;
73454;SDS011;61690;51.824;6.306;2023-07-13T10:37:18;10.50;;;5.63;;
73454;SDS011;61690;51.824;6.306;2023-07-13T10:39:47;10.82;;;4.93;;
73454;SDS011;61690;51.824;6.306;2023-07-13T10:42:16;11.70;;;5.10;;
73454;SDS011;61690;51.824;6.306;2023-07-13T10:47:44;10.18;;;5.32;;
73454;SDS011;61690;51.824;6.306;2023-07-13T10:50:20;10.77;;;5.38;;
73454;SDS011;61690;51.824;6.306;2023-07-13T10:52:52;9.85;;;4.78;;
73454;SDS011;61690;51.824;6.306;2023-07-13T11:03:29;10.02;;;5.25;;
73454;SDS011;61690;51.824;6.306;2023-07-13T11:08:54;11.60;;;6.30;;
73454;SDS011;61690;51.824;6.306;2023-07-13T11:18:44;14.60;;;8.00;;
73454;SDS011;61690;51.824;6.306;2023-07-13T11:21:13;17.93;;;9.87;;
73454;SDS011;61690;51.824;6.306;2023-07-13T11:23:44;14.73;;;9.77;;
73454;SDS011;61690;51.824;6.306;2023-07-13T11:29:27;14.45;;;8.65;;
73454;SDS011;61690;51.824;6.306;2023-07-13T11:32:10;11.93;;;7.30;;
73454;SDS011;61690;51.824;6.306;2023-07-13T11:34:47;13.00;;;7.00;;
73454;SDS011;61690;51.824;6.306;2023-07-13T11:37:14;12.00;;;7.15;;
73454;SDS011;61690;51.824;6.306;2023-07-13T11:39:42;15.05;;;7.97;;
73454;SDS011;61690;51.824;6.306;2023-07-13T11:42:10;14.38;;;7.50;;
73454;SDS011;61690;51.824;6.306;2023-07-13T11:44:43;11.65;;;7.13;;
73454;SDS011;61690;51.824;6.306;2023-07-13T11:47:11;13.83;;;6.73;;
73454;SDS011;61690;51.824;6.306;2023-07-13T11:49:52;12.68;;;7.18;;
73454;SDS011;61690;51.824;6.306;2023-07-13T11:52:35;12.25;;;8.25;;
73454;SDS011;61690;51.824;6.306;2023-07-13T11:55:03;13.68;;;7.88;;
73454;SDS011;61690;51.824;6.306;2023-07-13T11:57:40;12.85;;;7.90;;
73454;SDS011;61690;51.824;6.306;2023-07-13T12:00:12;10.77;;;7.20;;
73454;SDS011;61690;51.824;6.306;2023-07-13T12:02:42;12.18;;;7.80;;
73454;SDS011;61690;51.824;6.306;2023-07-13T12:05:11;12.75;;;7.80;;
73454;SDS011;61690;51.824;6.306;2023-07-13T12:07:39;12.73;;;7.15;;
73454;SDS011;61690;51.824;6.306;2023-07-13T12:10:15;10.97;;;6.30;;
73454;SDS011;61690;51.824;6.306;2023-07-13T12:12:56;10.85;;;7.22;;
73454;SDS011;61690;51.824;6.306;2023-07-13T12:15:27;9.55;;;6.30;;
73454;SDS011;61690;51.824;6.306;2023-07-13T12:17:55;9.93;;;5.80;;
73454;SDS011;61690;51.824;6.306;2023-07-13T12:20:33;10.65;;;5.70;;
73454;SDS011;61690;51.824;6.306;2023-07-13T12:23:04;9.23;;;5.13;;
73454;SDS011;61690;51.824;6.306;2023-07-13T12:25:31;8.52;;;5.28;;
73454;SDS011;61690;51.824;6.306;2023-07-13T12:27:56;7.93;;;4.80;;
73454;SDS011;61690;51.824;6.306;2023-07-13T12:30:27;7.47;;;4.90;;
73454;SDS011;61690;51.824;6.306;2023-07-13T12:33:08;7.35;;;4.57;;
73454;SDS011;61690;51.824;6.306;2023-07-13T12:35:41;6.03;;;4.20;;
73454;SDS011;61690;51.824;6.306;2023-07-13T12:38:10;8.55;;;4.30;;
73454;SDS011;61690;51.824;6.306;2023-07-13T12:40:37;8.73;;;4.20;;
73454;SDS011;61690;51.824;6.306;2023-07-13T12:43:11;7.13;;;3.85;;
73454;SDS011;61690;51.824;6.306;2023-07-13T12:45:38;7.35;;;4.00;;
73454;SDS011;61690;51.824;6.306;2023-07-13T12:48:05;7.93;;;4.20;;
73454;SDS011;61690;51.824;6.306;2023-07-13T12:50:39;7.22;;;4.03;;
73454;SDS011;61690;51.824;6.306;2023-07-13T12:53:12;7.65;;;4.15;;
73454;SDS011;61690;51.824;6.306;2023-07-13T12:55:43;7.22;;;3.88;;
73454;SDS011;61690;51.824;6.306;2023-07-13T12:58:24;7.88;;;3.83;;
73454;SDS011;61690;51.824;6.306;2023-07-13T13:01:04;9.03;;;3.80;;
73454;SDS011;61690;51.824;6.306;2023-07-13T13:03:34;7.22;;;3.80;;
73454;SDS011;61690;51.824;6.306;2023-07-13T13:06:06;6.60;;;3.67;;
73454;SDS011;61690;51.824;6.306;2023-07-13T13:08:45;7.55;;;3.40;;
73454;SDS011;61690;51.824;6.306;2023-07-13T13:11:14;7.55;;;3.10;;
73454;SDS011;61690;51.824;6.306;2023-07-13T13:13:41;9.63;;;3.77;;
73454;SDS011;61690;51.824;6.306;2023-07-13T13:18:41;7.57;;;3.67;;
73454;SDS011;61690;51.824;6.306;2023-07-13T13:21:08;7.03;;;3.60;;
73454;SDS011;61690;51.824;6.306;2023-07-13T13:23:34;8.07;;;3.70;;
73454;SDS011;61690;51.824;6.306;2023-07-13T13:25:59;7.82;;;3.15;;
73454;SDS011;61690;51.824;6.306;2023-07-13T13:28:25;6.83;;;3.27;;
73454;SDS011;61690;51.824;6.306;2023-07-13T13:30:51;6.60;;;3.42;;
73454;SDS011;61690;51.824;6.306;2023-07-13T13:33:17;8.50;;;3.60;;
73454;SDS011;61690;51.824;6.306;2023-07-13T13:35:44;10.35;;;3.65;;
73454;SDS011;61690;51.824;6.306;2023-07-13T13:38:16;9.27;;;3.70;;
73454;SDS011;61690;51.824;6.306;2023-07-13T13:40:46;9.32;;;3.70;;
73454;SDS011;61690;51.824;6.306;2023-07-13T13:43:22;9.03;;;3.83;;
73454;SDS011;61690;51.824;6.306;2023-07-13T13:45:55;8.45;;;3.70;;
73454;SDS011;61690;51.824;6.306;2023-07-13T13:48:31;6.68;;;3.40;;
73454;SDS011;61690;51.824;6.306;2023-07-13T13:51:01;10.25;;;4.10;;
73454;SDS011;61690;51.824;6.306;2023-07-13T13:53:30;7.70;;;3.22;;
73454;SDS011;61690;51.824;6.306;2023-07-13T13:55:58;8.53;;;3.70;;
73454;SDS011;61690;51.824;6.306;2023-07-13T13:58:25;9.30;;;4.07;;
73454;SDS011;61690;51.824;6.306;2023-07-13T14:00:50;8.87;;;3.83;;
73454;SDS011;61690;51.824;6.306;2023-07-13T14:03:17;8.50;;;3.27;;
73454;SDS011;61690;51.824;6.306;2023-07-13T14:05:44;9.30;;;3.22;;
73454;SDS011;61690;51.824;6.306;2023-07-13T14:08:16;12.20;;;4.18;;
73454;SDS011;61690;51.824;6.306;2023-07-13T14:10:44;7.65;;;3.70;;
73454;SDS011;61690;51.824;6.306;2023-07-13T14:13:19;7.90;;;3.70;;
73454;SDS011;61690;51.824;6.306;2023-07-13T14:15:47;10.90;;;4.00;;
73454;SDS011;61690;51.824;6.306;2023-07-13T14:18:12;8.18;;;3.40;;
73454;SDS011;61690;51.824;6.306;2023-07-13T14:20:43;9.50;;;3.75;;
73454;SDS011;61690;51.824;6.306;2023-07-13T14:23:09;9.10;;;4.00;;
73454;SDS011;61690;51.824;6.306;2023-07-13T14:25:34;8.13;;;3.60;;
73454;SDS011;61690;51.824;6.306;2023-07-13T14:28:00;8.40;;;3.77;;
73454;SDS011;61690;51.824;6.306;2023-07-13T14:30:35;9.43;;;4.40;;
73454;SDS011;61690;51.824;6.306;2023-07-13T14:33:01;8.65;;;3.50;;
73454;SDS011;61690;51.824;6.306;2023-07-13T14:35:26;7.90;;;4.00;;
73454;SDS011;61690;51.824;6.306;2023-07-13T14:37:52;9.87;;;4.20;;
73454;SDS011;61690;51.824;6.306;2023-07-13T14:40:19;9.07;;;4.00;;
73454;SDS011;61690;51.824;6.306;2023-07-13T14:42:51;7.88;;;3.55;;
73454;SDS011;61690;51.824;6.306;2023-07-13T14:45:18;7.95;;;4.15;;
73454;SDS011;61690;51.824;6.306;2023-07-13T14:47:45;8.13;;;3.97;;
73454;SDS011;61690;51.824;6.306;2023-07-13T14:50:12;7.60;;;3.27;;
73454;SDS011;61690;51.824;6.306;2023-07-13T14:52:41;9.57;;;3.72;;
73454;SDS011;61690;51.824;6.306;2023-07-13T14:55:17;8.40;;;4.03;;
73454;SDS011;61690;51.824;6.306;2023-07-13T14:57:44;7.45;;;3.42;;
73454;SDS011;61690;51.824;6.306;2023-07-13T15:02:40;7.20;;;3.57;;
73454;SDS011;61690;51.824;6.306;2023-07-13T15:05:23;9.13;;;4.00;;
73454;SDS011;61690;51.824;6.306;2023-07-13T15:07:50;8.15;;;3.72;;
73454;SDS011;61690;51.824;6.306;2023-07-13T15:10:19;9.10;;;4.70;;
73454;SDS011;61690;51.824;6.306;2023-07-13T15:12:46;8.77;;;4.28;;
73454;SDS011;61690;51.824;6.306;2023-07-13T15:15:12;9.23;;;4.07;;
73454;SDS011;61690;51.824;6.306;2023-07-13T15:17:40;7.47;;;3.92;;
73454;SDS011;61690;51.824;6.306;2023-07-13T15:22:50;7.90;;;3.97;;
73454;SDS011;61690;51.824;6.306;2023-07-13T15:25:17;8.07;;;4.30;;
73454;SDS011;61690;51.824;6.306;2023-07-13T15:27:44;9.27;;;4.13;;
73454;SDS011;61690;51.824;6.306;2023-07-13T15:30:11;9.27;;;4.15;;
73454;SDS011;61690;51.824;6.306;2023-07-13T15:32:36;7.47;;;3.97;;
73454;SDS011;61690;51.824;6.306;2023-07-13T15:35:02;8.33;;;4.03;;
73454;SDS011;61690;51.824;6.306;2023-07-13T15:37:29;10.48;;;4.35;;